sensor_id;sensor_type;location;lat;lon;timestamp;P1;durP1;ratioP1;P2;durP2;ratioP2
46983;SDS011;34732;52.112;9.366;2024-03-02T09:57:09;18.00;;;17.00;;
46983;SDS011;34732;52.112;9.366;2024-03-02T10:00:33;24.00;;;22.00;;
46983;SDS011;34732;52.112;9.366;2024-03-02T10:04:02;16.50;;;14.00;;
46983;SDS011;34732;52.112;9.366;2024-03-02T10:07:23;19.25;;;17.25;;
46983;SDS011;34732;52.112;9.366;2024-03-02T10:10:44;16.50;;;15.00;;
46983;SDS011;34732;52.112;9.366;2024-03-02T10:14:11;19.25;;;18.00;;
46983;SDS011;34732;52.112;9.366;2024-03-02T10:17:37;13.25;;;12.75;;
46983;SDS011;34732;52.112;9.366;2024-03-02T10:21:15;13.75;;;13.25;;
46983;SDS011;34732;52.112;9.366;2024-03-02T10:28:08;14.25;;;13.75;;
46983;SDS011;34732;52.112;9.366;2024-03-02T10:31:34;11.25;;;11.25;;
46983;SDS011;34732;52.112;9.366;2024-03-02T10:35:03;10.75;;;10.50;;
46983;SDS011;34732;52.112;9.366;2024-03-02T10:38:25;12.50;;;11.25;;
46983;SDS011;34732;52.112;9.366;2024-03-02T10:41:48;13.25;;;12.75;;
46983;SDS011;34732;52.112;9.366;2024-03-02T10:45:10;11.25;;;11.00;;
46983;SDS011;34732;52.112;9.366;2024-03-02T10:48:33;14.33;;;12.67;;
46983;SDS011;34732;52.112;9.366;2024-03-02T10:52:03;13.00;;;13.00;;
46983;SDS011;34732;52.112;9.366;2024-03-02T10:55:29;11.75;;;11.00;;
46983;SDS011;34732;52.112;9.366;2024-03-02T10:59:01;12.50;;;11.50;;
46983;SDS011;34732;52.112;9.366;2024-03-02T11:02:26;9.75;;;9.50;;
46983;SDS011;34732;52.112;9.366;2024-03-02T11:05:49;11.75;;;11.25;;
46983;SDS011;34732;52.112;9.366;2024-03-02T11:09:14;7.75;;;7.00;;
46983;SDS011;34732;52.112;9.366;2024-03-02T11:16:04;10.50;;;10.25;;
46983;SDS011;34732;52.112;9.366;2024-03-02T11:19:27;12.00;;;12.00;;
46983;SDS011;34732;52.112;9.366;2024-03-02T11:22:53;11.75;;;11.75;;
46983;SDS011;34732;52.112;9.366;2024-03-02T11:29:47;11.25;;;11.25;;
46983;SDS011;34732;52.112;9.366;2024-03-02T11:33:15;10.75;;;10.75;;
46983;SDS011;34732;52.112;9.366;2024-03-02T11:36:44;9.25;;;9.25;;
46983;SDS011;34732;52.112;9.366;2024-03-02T11:40:07;11.75;;;10.25;;
46983;SDS011;34732;52.112;9.366;2024-03-02T11:43:33;10.00;;;9.75;;
46983;SDS011;34732;52.112;9.366;2024-03-02T11:47:00;9.25;;;9.25;;
46983;SDS011;34732;52.112;9.366;2024-03-02T11:53:57;11.50;;;10.25;;
46983;SDS011;34732;52.112;9.366;2024-03-02T11:57:20;5.75;;;5.50;;
46983;SDS011;34732;52.112;9.366;2024-03-02T12:00:46;7.75;;;6.50;;
46983;SDS011;34732;52.112;9.366;2024-03-02T12:04:12;8.33;;;7.33;;
46983;SDS011;34732;52.112;9.366;2024-03-02T12:07:36;10.25;;;9.50;;
46983;SDS011;34732;52.112;9.366;2024-03-02T12:10:58;12.00;;;11.00;;
46983;SDS011;34732;52.112;9.366;2024-03-02T12:14:27;8.33;;;7.67;;
46983;SDS011;34732;52.112;9.366;2024-03-02T12:17:55;10.75;;;8.75;;
46983;SDS011;34732;52.112;9.366;2024-03-02T12:21:17;8.25;;;7.25;;
46983;SDS011;34732;52.112;9.366;2024-03-02T12:24:43;6.75;;;6.25;;
46983;SDS011;34732;52.112;9.366;2024-03-02T12:28:08;10.50;;;9.00;;
46983;SDS011;34732;52.112;9.366;2024-03-02T12:31:37;9.75;;;9.50;;
46983;SDS011;34732;52.112;9.366;2024-03-02T12:35:00;9.25;;;9.25;;
46983;SDS011;34732;52.112;9.366;2024-03-02T12:38:25;9.00;;;9.00;;
46983;SDS011;34732;52.112;9.366;2024-03-02T12:41:51;6.25;;;6.25;;
46983;SDS011;34732;52.112;9.366;2024-03-02T12:45:21;7.25;;;7.00;;
46983;SDS011;34732;52.112;9.366;2024-03-02T12:48:47;8.75;;;7.75;;
46983;SDS011;34732;52.112;9.366;2024-03-02T12:52:09;9.00;;;8.25;;
46983;SDS011;34732;52.112;9.366;2024-03-02T12:55:44;7.25;;;7.25;;
46983;SDS011;34732;52.112;9.366;2024-03-02T12:59:09;6.25;;;6.25;;
46983;SDS011;34732;52.112;9.366;2024-03-02T13:02:33;6.25;;;6.00;;
46983;SDS011;34732;52.112;9.366;2024-03-02T13:05:57;4.75;;;4.75;;
46983;SDS011;34732;52.112;9.366;2024-03-02T13:09:20;6.25;;;6.25;;
46983;SDS011;34732;52.112;9.366;2024-03-02T13:12:49;6.50;;;6.00;;
46983;SDS011;34732;52.112;9.366;2024-03-02T13:16:15;7.00;;;7.00;;
46983;SDS011;34732;52.112;9.366;2024-03-02T13:19:38;8.50;;;7.50;;
46983;SDS011;34732;52.112;9.366;2024-03-02T13:22:59;7.00;;;6.50;;
46983;SDS011;34732;52.112;9.366;2024-03-02T13:26:23;6.00;;;6.00;;
46983;SDS011;34732;52.112;9.366;2024-03-02T13:29:44;6.50;;;5.25;;
46983;SDS011;34732;52.112;9.366;2024-03-02T13:33:08;7.00;;;5.50;;
46983;SDS011;34732;52.112;9.366;2024-03-02T13:36:36;6.75;;;6.75;;
46983;SDS011;34732;52.112;9.366;2024-03-02T13:40:01;6.00;;;5.50;;
46983;SDS011;34732;52.112;9.366;2024-03-02T13:43:27;5.00;;;5.00;;
46983;SDS011;34732;52.112;9.366;2024-03-02T13:46:54;4.00;;;3.25;;
46983;SDS011;34732;52.112;9.366;2024-03-02T13:50:23;5.25;;;4.50;;
46983;SDS011;34732;52.112;9.366;2024-03-02T13:53:46;4.00;;;4.00;;
46983;SDS011;34732;52.112;9.366;2024-03-02T13:57:08;4.25;;;4.25;;
46983;SDS011;34732;52.112;9.366;2024-03-02T14:00:30;4.75;;;4.00;;
46983;SDS011;34732;52.112;9.366;2024-03-02T14:03:51;4.00;;;4.00;;
46983;SDS011;34732;52.112;9.366;2024-03-02T14:07:15;4.00;;;3.50;;
46983;SDS011;34732;52.112;9.366;2024-03-02T14:10:41;5.00;;;4.00;;
46983;SDS011;34732;52.112;9.366;2024-03-02T14:14:08;3.25;;;3.25;;
46983;SDS011;34732;52.112;9.366;2024-03-02T14:17:33;3.00;;;3.00;;
46983;SDS011;34732;52.112;9.366;2024-03-02T14:20:59;3.00;;;3.00;;
46983;SDS011;34732;52.112;9.366;2024-03-02T14:24:26;4.00;;;4.00;;
46983;SDS011;34732;52.112;9.366;2024-03-02T14:27:49;5.00;;;4.75;;
46983;SDS011;34732;52.112;9.366;2024-03-02T14:31:13;5.00;;;4.50;;
46983;SDS011;34732;52.112;9.366;2024-03-02T14:34:36;3.25;;;3.00;;
46983;SDS011;34732;52.112;9.366;2024-03-02T14:38:02;4.75;;;4.75;;
46983;SDS011;34732;52.112;9.366;2024-03-02T14:41:23;3.50;;;3.50;;
46983;SDS011;34732;52.112;9.366;2024-03-02T14:44:49;4.00;;;4.00;;
46983;SDS011;34732;52.112;9.366;2024-03-02T14:48:15;4.00;;;4.00;;
46983;SDS011;34732;52.112;9.366;2024-03-02T14:51:37;3.50;;;3.50;;
46983;SDS011;34732;52.112;9.366;2024-03-02T14:55:01;2.75;;;2.50;;
46983;SDS011;34732;52.112;9.366;2024-03-02T14:58:24;5.00;;;5.00;;
46983;SDS011;34732;52.112;9.366;2024-03-02T15:01:48;4.25;;;3.50;;
46983;SDS011;34732;52.112;9.366;2024-03-02T15:05:12;3.00;;;3.00;;
46983;SDS011;34732;52.112;9.366;2024-03-02T15:08:36;4.00;;;4.00;;
46983;SDS011;34732;52.112;9.366;2024-03-02T15:11:57;5.00;;;5.00;;
46983;SDS011;34732;52.112;9.366;2024-03-02T15:15:27;6.75;;;6.25;;
46983;SDS011;34732;52.112;9.366;2024-03-02T15:18:50;5.75;;;5.25;;
46983;SDS011;34732;52.112;9.366;2024-03-02T15:22:14;6.25;;;5.50;;
46983;SDS011;34732;52.112;9.366;2024-03-02T15:25:37;7.00;;;6.00;;
46983;SDS011;34732;52.112;9.366;2024-03-02T15:29:01;6.25;;;6.25;;
46983;SDS011;34732;52.112;9.366;2024-03-02T15:32:22;7.50;;;7.50;;
46983;SDS011;34732;52.112;9.366;2024-03-02T15:35:46;6.50;;;6.00;;
46983;SDS011;34732;52.112;9.366;2024-03-02T15:39:09;6.33;;;6.33;;
46983;SDS011;34732;52.112;9.366;2024-03-02T15:42:37;5.00;;;5.00;;
46983;SDS011;34732;52.112;9.366;2024-03-02T15:46:01;6.00;;;6.00;;
46983;SDS011;34732;52.112;9.366;2024-03-02T15:49:23;7.75;;;7.50;;
46983;SDS011;34732;52.112;9.366;2024-03-02T15:52:50;5.75;;;4.75;;
46983;SDS011;34732;52.112;9.366;2024-03-02T15:56:16;6.75;;;6.75;;
46983;SDS011;34732;52.112;9.366;2024-03-02T16:03:59;6.25;;;6.25;;
46983;SDS011;34732;52.112;9.366;2024-03-02T16:07:23;6.50;;;6.25;;
46983;SDS011;34732;52.112;9.366;2024-03-02T16:10:48;6.50;;;6.00;;
46983;SDS011;34732;52.112;9.366;2024-03-02T16:14:16;8.50;;;7.25;;
46983;SDS011;34732;52.112;9.366;2024-03-02T16:17:37;5.25;;;5.00;;
46983;SDS011;34732;52.112;9.366;2024-03-02T16:21:03;5.00;;;5.00;;
46983;SDS011;34732;52.112;9.366;2024-03-02T16:24:31;5.25;;;5.00;;
46983;SDS011;34732;52.112;9.366;2024-03-02T16:27:57;5.25;;;5.00;;
46983;SDS011;34732;52.112;9.366;2024-03-02T16:31:23;6.00;;;5.00;;
46983;SDS011;34732;52.112;9.366;2024-03-02T16:34:45;4.00;;;4.00;;
46983;SDS011;34732;52.112;9.366;2024-03-02T16:38:08;6.00;;;5.00;;
46983;SDS011;34732;52.112;9.366;2024-03-02T16:41:32;4.75;;;4.50;;
46983;SDS011;34732;52.112;9.366;2024-03-02T16:44:54;6.00;;;6.00;;
46983;SDS011;34732;52.112;9.366;2024-03-02T16:48:17;5.75;;;5.00;;
46983;SDS011;34732;52.112;9.366;2024-03-02T16:51:39;6.00;;;5.25;;
46983;SDS011;34732;52.112;9.366;2024-03-02T16:55:07;7.75;;;6.75;;
46983;SDS011;34732;52.112;9.366;2024-03-02T16:58:31;7.00;;;6.00;;
46983;SDS011;34732;52.112;9.366;2024-03-02T17:01:52;5.00;;;5.00;;
46983;SDS011;34732;52.112;9.366;2024-03-02T17:05:18;4.50;;;4.50;;
46983;SDS011;34732;52.112;9.366;2024-03-02T17:08:42;6.25;;;6.25;;
46983;SDS011;34732;52.112;9.366;2024-03-02T17:12:05;7.00;;;7.00;;
46983;SDS011;34732;52.112;9.366;2024-03-02T17:15:29;7.75;;;6.00;;
46983;SDS011;34732;52.112;9.366;2024-03-02T17:18:53;7.25;;;6.25;;
46983;SDS011;34732;52.112;9.366;2024-03-02T17:22:16;5.00;;;4.50;;
46983;SDS011;34732;52.112;9.366;2024-03-02T17:25:43;6.00;;;6.00;;
46983;SDS011;34732;52.112;9.366;2024-03-02T17:29:10;4.50;;;4.50;;
46983;SDS011;34732;52.112;9.366;2024-03-02T17:32:33;6.00;;;5.00;;
46983;SDS011;34732;52.112;9.366;2024-03-02T17:35:59;3.00;;;3.00;;
46983;SDS011;34732;52.112;9.366;2024-03-02T17:43:49;5.33;;;5.00;;
46983;SDS011;34732;52.112;9.366;2024-03-02T17:47:11;6.75;;;6.25;;
46983;SDS011;34732;52.112;9.366;2024-03-02T17:50:34;5.00;;;4.75;;
46983;SDS011;34732;52.112;9.366;2024-03-02T17:53:55;5.75;;;4.75;;
46983;SDS011;34732;52.112;9.366;2024-03-02T17:57:19;3.75;;;3.75;;
46983;SDS011;34732;52.112;9.366;2024-03-02T18:00:43;4.00;;;4.00;;
46983;SDS011;34732;52.112;9.366;2024-03-02T18:04:07;4.25;;;4.00;;
46983;SDS011;34732;52.112;9.366;2024-03-02T18:07:31;5.00;;;5.00;;
46983;SDS011;34732;52.112;9.366;2024-03-02T18:10:59;4.75;;;4.00;;
46983;SDS011;34732;52.112;9.366;2024-03-02T18:14:23;4.00;;;4.00;;
46983;SDS011;34732;52.112;9.366;2024-03-02T18:17:51;6.00;;;5.00;;
46983;SDS011;34732;52.112;9.366;2024-03-02T18:21:13;4.00;;;4.00;;
46983;SDS011;34732;52.112;9.366;2024-03-02T18:24:34;3.75;;;3.75;;
46983;SDS011;34732;52.112;9.366;2024-03-02T18:27:55;3.00;;;3.00;;
46983;SDS011;34732;52.112;9.366;2024-03-02T18:31:19;3.25;;;3.00;;
46983;SDS011;34732;52.112;9.366;2024-03-02T18:34:45;4.00;;;4.00;;
46983;SDS011;34732;52.112;9.366;2024-03-02T18:38:07;4.00;;;3.50;;
46983;SDS011;34732;52.112;9.366;2024-03-02T18:41:30;4.00;;;4.00;;
46983;SDS011;34732;52.112;9.366;2024-03-02T18:44:54;3.50;;;3.25;;
46983;SDS011;34732;52.112;9.366;2024-03-02T18:48:18;4.25;;;4.00;;
46983;SDS011;34732;52.112;9.366;2024-03-02T18:51:39;4.00;;;4.00;;
46983;SDS011;34732;52.112;9.366;2024-03-02T18:55:05;3.00;;;3.00;;
46983;SDS011;34732;52.112;9.366;2024-03-02T18:58:31;5.25;;;4.75;;
46983;SDS011;34732;52.112;9.366;2024-03-02T19:01:58;4.00;;;3.25;;
46983;SDS011;34732;52.112;9.366;2024-03-02T19:05:24;4.25;;;4.00;;
46983;SDS011;34732;52.112;9.366;2024-03-02T19:08:47;4.00;;;4.00;;
46983;SDS011;34732;52.112;9.366;2024-03-02T19:12:14;4.25;;;3.50;;
46983;SDS011;34732;52.112;9.366;2024-03-02T19:15:38;6.00;;;5.00;;
46983;SDS011;34732;52.112;9.366;2024-03-02T19:18:59;4.75;;;4.25;;
46983;SDS011;34732;52.112;9.366;2024-03-02T19:22:25;3.00;;;3.00;;
46983;SDS011;34732;52.112;9.366;2024-03-02T19:25:48;4.25;;;4.00;;
46983;SDS011;34732;52.112;9.366;2024-03-02T19:29:18;3.75;;;3.50;;
46983;SDS011;34732;52.112;9.366;2024-03-02T19:32:58;4.25;;;3.00;;
46983;SDS011;34732;52.112;9.366;2024-03-02T19:36:21;3.25;;;3.00;;
46983;SDS011;34732;52.112;9.366;2024-03-02T19:40:01;4.00;;;3.50;;
46983;SDS011;34732;52.112;9.366;2024-03-02T19:43:31;4.50;;;3.75;;
46983;SDS011;34732;52.112;9.366;2024-03-02T19:47:03;4.00;;;4.00;;
46983;SDS011;34732;52.112;9.366;2024-03-02T19:50:27;3.50;;;3.50;;
46983;SDS011;34732;52.112;9.366;2024-03-02T19:53:52;6.00;;;3.50;;
46983;SDS011;34732;52.112;9.366;2024-03-02T19:57:18;4.50;;;4.00;;
46983;SDS011;34732;52.112;9.366;2024-03-02T20:00:46;5.25;;;4.50;;
46983;SDS011;34732;52.112;9.366;2024-03-02T20:04:08;3.25;;;3.25;;
46983;SDS011;34732;52.112;9.366;2024-03-02T20:07:30;5.00;;;4.00;;
46983;SDS011;34732;52.112;9.366;2024-03-02T20:10:54;3.25;;;3.25;;
46983;SDS011;34732;52.112;9.366;2024-03-02T20:14:20;4.00;;;4.00;;
46983;SDS011;34732;52.112;9.366;2024-03-02T20:17:44;4.50;;;4.50;;
46983;SDS011;34732;52.112;9.366;2024-03-02T20:21:10;5.25;;;4.25;;
46983;SDS011;34732;52.112;9.366;2024-03-02T20:24:33;3.50;;;3.00;;
46983;SDS011;34732;52.112;9.366;2024-03-02T20:27:59;3.00;;;3.00;;
46983;SDS011;34732;52.112;9.366;2024-03-02T20:31:27;4.25;;;4.00;;
46983;SDS011;34732;52.112;9.366;2024-03-02T20:34:51;5.25;;;5.00;;
46983;SDS011;34732;52.112;9.366;2024-03-02T20:38:17;5.50;;;5.00;;
46983;SDS011;34732;52.112;9.366;2024-03-02T20:41:38;12.75;;;11.50;;
46983;SDS011;34732;52.112;9.366;2024-03-02T20:45:04;10.75;;;10.75;;
46983;SDS011;34732;52.112;9.366;2024-03-02T20:48:25;14.00;;;13.00;;
46983;SDS011;34732;52.112;9.366;2024-03-02T20:51:51;14.50;;;13.00;;
46983;SDS011;34732;52.112;9.366;2024-03-02T20:55:12;13.25;;;12.75;;
46983;SDS011;34732;52.112;9.366;2024-03-02T20:58:36;17.25;;;15.25;;
